sensor_id;sensor_type;location;lat;lon;timestamp;pressure;altitude;pressure_sealevel;temperature;humidity
42859;BME280;28505;56.970;40.998;2022-10-18T00:03:36;100144.78;;;8.51;100.00
42859;BME280;28505;56.970;40.998;2022-10-18T00:08:59;100166.19;;;8.72;100.00
42859;BME280;28505;56.970;40.998;2022-10-18T00:14:40;100091.41;;;8.24;100.00
42859;BME280;28505;56.970;40.998;2022-10-18T00:20:09;100096.72;;;8.29;100.00
42859;BME280;28505;56.970;40.998;2022-10-18T00:25:32;100118.69;;;8.52;100.00
42859;BME280;28505;56.970;40.998;2022-10-18T00:30:54;100169.63;;;8.82;100.00
42859;BME280;28505;56.970;40.998;2022-10-18T00:36:17;100174.19;;;8.82;100.00
42859;BME280;28505;56.970;40.998;2022-10-18T00:41:39;100209.03;;;9.02;100.00
42859;BME280;28505;56.970;40.998;2022-10-18T00:47:06;100214.13;;;9.09;100.00
42859;BME280;28505;56.970;40.998;2022-10-18T00:52:35;100211.44;;;9.09;100.00
42859;BME280;28505;56.970;40.998;2022-10-18T00:58:03;100097.25;;;8.36;100.00
42859;BME280;28505;56.970;40.998;2022-10-18T01:03:26;100171.19;;;8.94;100.00
42859;BME280;28505;56.970;40.998;2022-10-18T01:32:13;100165.31;;;8.86;100.00
42859;BME280;28505;56.970;40.998;2022-10-18T01:37:38;100151.91;;;8.81;100.00
42859;BME280;28505;56.970;40.998;2022-10-18T01:43:02;100180.88;;;8.95;100.00
42859;BME280;28505;56.970;40.998;2022-10-18T01:48:30;100156.19;;;8.82;100.00
42859;BME280;28505;56.970;40.998;2022-10-18T01:53:54;100164.22;;;8.87;100.00
42859;BME280;28505;56.970;40.998;2022-10-18T01:59:27;100163.69;;;8.85;100.00
42859;BME280;28505;56.970;40.998;2022-10-18T02:05:05;100158.63;;;8.79;100.00
42859;BME280;28505;56.970;40.998;2022-10-18T02:10:35;100105.31;;;8.41;100.00
42859;BME280;28505;56.970;40.998;2022-10-18T02:16:04;100060.25;;;8.13;100.00
42859;BME280;28505;56.970;40.998;2022-10-18T02:21:38;100093.78;;;8.31;100.00
42859;BME280;28505;56.970;40.998;2022-10-18T02:27:01;100139.06;;;8.63;100.00
42859;BME280;28505;56.970;40.998;2022-10-18T02:32:40;100146.56;;;8.66;100.00
42859;BME280;28505;56.970;40.998;2022-10-18T02:38:03;100141.50;;;8.64;100.00
42859;BME280;28505;56.970;40.998;2022-10-18T02:43:27;100099.91;;;8.36;100.00
42859;BME280;28505;56.970;40.998;2022-10-18T02:48:50;100136.13;;;8.64;100.00
42859;BME280;28505;56.970;40.998;2022-10-18T02:54:12;100146.06;;;8.64;100.00
42859;BME280;28505;56.970;40.998;2022-10-18T02:59:34;100145.53;;;8.67;100.00
42859;BME280;28505;56.970;40.998;2022-10-18T03:04:56;100093.47;;;8.42;100.00
42859;BME280;28505;56.970;40.998;2022-10-18T03:10:18;100123.50;;;8.60;100.00
42859;BME280;28505;56.970;40.998;2022-10-18T03:15:40;100117.59;;;8.58;100.00
42859;BME280;28505;56.970;40.998;2022-10-18T03:21:06;100114.09;;;8.62;100.00
42859;BME280;28505;56.970;40.998;2022-10-18T03:26:31;100078.44;;;8.41;100.00
42859;BME280;28505;56.970;40.998;2022-10-18T03:31:56;100084.81;;;8.56;100.00
42859;BME280;28505;56.970;40.998;2022-10-18T03:37:18;100070.88;;;8.49;100.00
42859;BME280;28505;56.970;40.998;2022-10-18T03:42:40;100070.06;;;8.53;100.00
42859;BME280;28505;56.970;40.998;2022-10-18T03:48:02;100030.97;;;8.21;100.00
42859;BME280;28505;56.970;40.998;2022-10-18T03:53:24;100054.22;;;8.47;100.00
42859;BME280;28505;56.970;40.998;2022-10-18T03:58:46;100060.16;;;8.49;100.00
42859;BME280;28505;56.970;40.998;2022-10-18T04:04:08;100074.63;;;8.58;100.00
42859;BME280;28505;56.970;40.998;2022-10-18T04:09:34;100078.34;;;8.62;100.00
42859;BME280;28505;56.970;40.998;2022-10-18T04:14:56;100037.59;;;8.44;100.00
42859;BME280;28505;56.970;40.998;2022-10-18T04:20:18;100042.97;;;8.44;100.00
42859;BME280;28505;56.970;40.998;2022-10-18T04:25:40;100069.75;;;8.60;100.00
42859;BME280;28505;56.970;40.998;2022-10-18T04:31:03;100050.44;;;8.58;100.00
42859;BME280;28505;56.970;40.998;2022-10-18T04:36:28;100051.53;;;8.57;100.00
42859;BME280;28505;56.970;40.998;2022-10-18T04:41:50;100054.22;;;8.57;100.00
42859;BME280;28505;56.970;40.998;2022-10-18T04:47:12;99961.28;;;7.96;100.00
42859;BME280;28505;56.970;40.998;2022-10-18T04:52:34;100044.56;;;8.51;100.00
42859;BME280;28505;56.970;40.998;2022-10-18T04:57:57;100042.94;;;8.50;100.00
42859;BME280;28505;56.970;40.998;2022-10-18T05:03:19;100017.75;;;8.40;100.00
42859;BME280;28505;56.970;40.998;2022-10-18T05:08:41;100020.41;;;8.46;100.00
42859;BME280;28505;56.970;40.998;2022-10-18T05:14:14;100017.41;;;8.52;100.00
42859;BME280;28505;56.970;40.998;2022-10-18T05:19:36;100010.69;;;8.50;100.00
42859;BME280;28505;56.970;40.998;2022-10-18T05:24:58;99991.69;;;8.41;100.00
42859;BME280;28505;56.970;40.998;2022-10-18T05:30:20;100007.44;;;8.58;100.00
42859;BME280;28505;56.970;40.998;2022-10-18T05:35:42;100011.16;;;8.62;100.00
42859;BME280;28505;56.970;40.998;2022-10-18T05:41:05;99991.25;;;8.63;100.00
42859;BME280;28505;56.970;40.998;2022-10-18T05:46:27;99973.84;;;8.60;100.00
42859;BME280;28505;56.970;40.998;2022-10-18T05:51:49;99976.22;;;8.67;100.00
42859;BME280;28505;56.970;40.998;2022-10-18T05:57:11;99975.66;;;8.70;100.00
42859;BME280;28505;56.970;40.998;2022-10-18T06:02:33;99969.19;;;8.71;100.00
42859;BME280;28505;56.970;40.998;2022-10-18T06:07:56;99962.22;;;8.70;100.00
42859;BME280;28505;56.970;40.998;2022-10-18T06:13:18;99946.66;;;8.67;100.00
42859;BME280;28505;56.970;40.998;2022-10-18T06:18:41;99883.47;;;8.30;100.00
42859;BME280;28505;56.970;40.998;2022-10-18T06:24:04;99912.34;;;8.54;100.00
42859;BME280;28505;56.970;40.998;2022-10-18T06:29:26;99915.84;;;8.54;100.00
42859;BME280;28505;56.970;40.998;2022-10-18T06:34:48;99844.63;;;8.17;100.00
42859;BME280;28505;56.970;40.998;2022-10-18T06:40:18;99873.22;;;8.37;100.00
42859;BME280;28505;56.970;40.998;2022-10-18T06:45:51;99872.97;;;8.34;100.00
42859;BME280;28505;56.970;40.998;2022-10-18T06:51:16;99848.53;;;8.30;100.00
42859;BME280;28505;56.970;40.998;2022-10-18T06:56:41;99828.78;;;8.16;100.00
42859;BME280;28505;56.970;40.998;2022-10-18T07:02:06;99869.88;;;8.56;100.00
42859;BME280;28505;56.970;40.998;2022-10-18T07:07:33;99824.44;;;8.20;100.00
42859;BME280;28505;56.970;40.998;2022-10-18T07:12:57;99842.63;;;8.38;100.00
42859;BME280;28505;56.970;40.998;2022-10-18T07:18:42;99861.53;;;8.57;100.00
42859;BME280;28505;56.970;40.998;2022-10-18T07:24:05;99795.44;;;8.22;100.00
42859;BME280;28505;56.970;40.998;2022-10-18T07:29:29;99812.50;;;8.41;100.00
42859;BME280;28505;56.970;40.998;2022-10-18T07:34:51;99826.31;;;8.59;100.00
42859;BME280;28505;56.970;40.998;2022-10-18T07:40:19;99818.00;;;8.55;100.00
42859;BME280;28505;56.970;40.998;2022-10-18T07:45:53;99777.81;;;8.45;100.00
42859;BME280;28505;56.970;40.998;2022-10-18T07:51:17;99808.53;;;8.63;100.00
42859;BME280;28505;56.970;40.998;2022-10-18T07:56:40;99784.22;;;8.49;100.00
42859;BME280;28505;56.970;40.998;2022-10-18T08:02:04;99825.50;;;8.87;100.00
42859;BME280;28505;56.970;40.998;2022-10-18T08:07:27;99729.88;;;8.28;100.00
42859;BME280;28505;56.970;40.998;2022-10-18T08:12:50;99717.28;;;8.24;100.00
42859;BME280;28505;56.970;40.998;2022-10-18T08:18:12;99794.34;;;8.86;100.00
42859;BME280;28505;56.970;40.998;2022-10-18T08:23:34;99751.59;;;8.61;100.00
42859;BME280;28505;56.970;40.998;2022-10-18T08:28:56;99708.31;;;8.38;100.00
42859;BME280;28505;56.970;40.998;2022-10-18T08:34:38;99661.78;;;8.14;100.00
42859;BME280;28505;56.970;40.998;2022-10-18T08:40:01;99764.34;;;8.74;100.00
42859;BME280;28505;56.970;40.998;2022-10-18T08:45:24;99758.19;;;8.74;100.00
42859;BME280;28505;56.970;40.998;2022-10-18T08:51:03;99760.41;;;8.66;100.00
42859;BME280;28505;56.970;40.998;2022-10-18T08:56:27;99751.59;;;8.61;100.00
42859;BME280;28505;56.970;40.998;2022-10-18T09:13:51;99638.28;;;8.01;100.00
42859;BME280;28505;56.970;40.998;2022-10-18T09:25:35;99599.78;;;7.86;100.00
42859;BME280;28505;56.970;40.998;2022-10-18T09:37:23;99582.31;;;7.89;100.00
42859;BME280;28505;56.970;40.998;2022-10-18T09:43:36;99569.19;;;7.87;100.00
42859;BME280;28505;56.970;40.998;2022-10-18T09:49:31;99610.91;;;8.28;100.00
42859;BME280;28505;56.970;40.998;2022-10-18T09:55:30;99575.25;;;8.22;100.00
42859;BME280;28505;56.970;40.998;2022-10-18T10:00:55;99562.78;;;8.31;100.00
42859;BME280;28505;56.970;40.998;2022-10-18T10:06:30;99525.09;;;8.17;100.00
42859;BME280;28505;56.970;40.998;2022-10-18T10:11:58;99492.75;;;8.04;100.00
42859;BME280;28505;56.970;40.998;2022-10-18T10:17:24;99443.16;;;7.77;100.00
42859;BME280;28505;56.970;40.998;2022-10-18T10:22:49;99547.53;;;8.51;100.00
42859;BME280;28505;56.970;40.998;2022-10-18T10:28:15;99541.94;;;8.47;100.00
42859;BME280;28505;56.970;40.998;2022-10-18T10:33:39;99499.47;;;8.25;100.00
42859;BME280;28505;56.970;40.998;2022-10-18T10:39:04;99504.03;;;8.49;100.00
42859;BME280;28505;56.970;40.998;2022-10-18T10:44:29;99497.84;;;8.48;100.00
42859;BME280;28505;56.970;40.998;2022-10-18T10:49:55;99472.38;;;8.46;100.00
42859;BME280;28505;56.970;40.998;2022-10-18T10:55:19;99457.16;;;8.36;100.00
42859;BME280;28505;56.970;40.998;2022-10-18T11:00:56;99381.47;;;7.96;100.00
42859;BME280;28505;56.970;40.998;2022-10-18T11:06:52;99448.94;;;8.51;100.00
42859;BME280;28505;56.970;40.998;2022-10-18T11:12:37;99436.88;;;8.49;100.00
42859;BME280;28505;56.970;40.998;2022-10-18T11:23:34;99402.31;;;8.42;100.00
42859;BME280;28505;56.970;40.998;2022-10-18T11:35:03;99376.84;;;8.39;100.00
42859;BME280;28505;56.970;40.998;2022-10-18T12:15:22;99253.13;;;7.46;100.00
42859;BME280;28505;56.970;40.998;2022-10-18T12:21:30;99250.72;;;7.45;100.00
42859;BME280;28505;56.970;40.998;2022-10-18T12:45:12;99230.78;;;7.32;100.00
42859;BME280;28505;56.970;40.998;2022-10-18T12:50:41;99244.72;;;7.53;100.00
42859;BME280;28505;56.970;40.998;2022-10-18T13:07:20;99242.66;;;7.64;100.00
42859;BME280;28505;56.970;40.998;2022-10-18T13:13:48;99237.25;;;7.69;100.00
42859;BME280;28505;56.970;40.998;2022-10-18T13:19:19;99231.56;;;7.70;100.00
42859;BME280;28505;56.970;40.998;2022-10-18T13:25:18;99248.81;;;7.83;100.00
42859;BME280;28505;56.970;40.998;2022-10-18T13:36:21;99210.06;;;7.57;100.00
42859;BME280;28505;56.970;40.998;2022-10-18T13:47:11;99223.38;;;7.62;100.00
42859;BME280;28505;56.970;40.998;2022-10-18T13:58:29;99201.22;;;7.56;100.00
42859;BME280;28505;56.970;40.998;2022-10-18T14:09:57;99136.59;;;7.20;100.00
42859;BME280;28505;56.970;40.998;2022-10-18T14:15:35;99148.84;;;7.26;100.00
42859;BME280;28505;56.970;40.998;2022-10-18T14:21:04;99127.63;;;7.11;100.00
42859;BME280;28505;56.970;40.998;2022-10-18T14:26:35;99156.16;;;7.20;100.00
42859;BME280;28505;56.970;40.998;2022-10-18T14:32:08;99096.22;;;6.73;100.00
42859;BME280;28505;56.970;40.998;2022-10-18T14:37:35;99162.72;;;7.09;100.00
42859;BME280;28505;56.970;40.998;2022-10-18T14:43:09;99107.69;;;6.79;100.00
42859;BME280;28505;56.970;40.998;2022-10-18T14:48:35;99099.22;;;6.72;100.00
42859;BME280;28505;56.970;40.998;2022-10-18T14:54:04;99123.97;;;6.83;100.00
42859;BME280;28505;56.970;40.998;2022-10-18T14:59:52;99160.28;;;6.94;100.00
42859;BME280;28505;56.970;40.998;2022-10-18T15:05:27;99165.19;;;7.06;100.00
42859;BME280;28505;56.970;40.998;2022-10-18T15:10:49;99207.09;;;7.20;100.00
42859;BME280;28505;56.970;40.998;2022-10-18T15:16:17;99203.09;;;7.18;100.00
42859;BME280;28505;56.970;40.998;2022-10-18T15:21:54;99198.53;;;7.18;100.00
42859;BME280;28505;56.970;40.998;2022-10-18T15:27:38;99207.88;;;7.21;100.00
42859;BME280;28505;56.970;40.998;2022-10-18T15:33:06;99177.59;;;7.01;100.00
42859;BME280;28505;56.970;40.998;2022-10-18T15:38:32;99186.72;;;7.00;100.00
42859;BME280;28505;56.970;40.998;2022-10-18T15:44:17;99193.66;;;7.01;100.00
42859;BME280;28505;56.970;40.998;2022-10-18T16:00:57;99205.41;;;7.06;100.00
42859;BME280;28505;56.970;40.998;2022-10-18T16:06:19;99240.63;;;7.18;100.00
42859;BME280;28505;56.970;40.998;2022-10-18T16:11:41;99233.16;;;7.15;100.00
42859;BME280;28505;56.970;40.998;2022-10-18T16:17:05;99234.53;;;7.12;100.00
42859;BME280;28505;56.970;40.998;2022-10-18T16:22:28;99235.66;;;7.06;100.00
42859;BME280;28505;56.970;40.998;2022-10-18T16:27:54;99237.50;;;7.11;100.00
42859;BME280;28505;56.970;40.998;2022-10-18T16:33:16;99240.69;;;7.13;100.00
42859;BME280;28505;56.970;40.998;2022-10-18T16:38:42;99223.53;;;7.14;100.00
42859;BME280;28505;56.970;40.998;2022-10-18T16:44:04;99231.34;;;7.10;100.00
42859;BME280;28505;56.970;40.998;2022-10-18T16:49:26;99236.41;;;7.12;100.00
42859;BME280;28505;56.970;40.998;2022-10-18T16:54:49;99241.28;;;7.10;100.00
42859;BME280;28505;56.970;40.998;2022-10-18T17:00:19;99239.09;;;7.12;100.00
42859;BME280;28505;56.970;40.998;2022-10-18T17:05:42;99239.63;;;7.14;100.00
42859;BME280;28505;56.970;40.998;2022-10-18T17:11:03;99203.94;;;6.94;100.00
42859;BME280;28505;56.970;40.998;2022-10-18T17:16:28;99230.03;;;7.08;100.00
42859;BME280;28505;56.970;40.998;2022-10-18T17:21:50;99224.09;;;7.11;100.00
42859;BME280;28505;56.970;40.998;2022-10-18T17:27:13;99232.16;;;7.11;100.00
42859;BME280;28505;56.970;40.998;2022-10-18T17:32:35;99254.69;;;7.10;100.00
42859;BME280;28505;56.970;40.998;2022-10-18T17:37:58;99243.44;;;7.08;100.00
42859;BME280;28505;56.970;40.998;2022-10-18T17:43:20;99254.94;;;7.08;100.00
42859;BME280;28505;56.970;40.998;2022-10-18T17:48:43;99242.69;;;7.02;100.00
42859;BME280;28505;56.970;40.998;2022-10-18T17:54:06;99250.47;;;7.03;100.00
42859;BME280;28505;56.970;40.998;2022-10-18T17:59:28;99242.44;;;7.03;100.00
42859;BME280;28505;56.970;40.998;2022-10-18T18:04:53;99247.25;;;7.01;100.00
42859;BME280;28505;56.970;40.998;2022-10-18T18:10:15;99267.03;;;7.06;100.00
42859;BME280;28505;56.970;40.998;2022-10-18T18:15:41;99247.09;;;6.93;100.00
42859;BME280;28505;56.970;40.998;2022-10-18T18:21:03;99235.19;;;6.80;100.00
42859;BME280;28505;56.970;40.998;2022-10-18T18:26:25;99271.91;;;7.03;100.00
42859;BME280;28505;56.970;40.998;2022-10-18T18:31:48;99266.53;;;7.03;100.00
42859;BME280;28505;56.970;40.998;2022-10-18T18:37:10;99269.28;;;6.98;100.00
42859;BME280;28505;56.970;40.998;2022-10-18T18:42:32;99267.25;;;6.90;100.00
42859;BME280;28505;56.970;40.998;2022-10-18T18:47:56;99241.06;;;6.82;100.00
42859;BME280;28505;56.970;40.998;2022-10-18T18:53:18;99270.75;;;6.86;100.00
42859;BME280;28505;56.970;40.998;2022-10-18T18:58:41;99272.06;;;6.88;100.00
42859;BME280;28505;56.970;40.998;2022-10-18T19:04:08;99301.44;;;6.98;100.00
42859;BME280;28505;56.970;40.998;2022-10-18T19:09:56;99292.88;;;6.96;100.00
42859;BME280;28505;56.970;40.998;2022-10-18T19:15:18;99299.38;;;6.90;100.00
42859;BME280;28505;56.970;40.998;2022-10-18T19:20:40;99308.72;;;6.93;100.00
42859;BME280;28505;56.970;40.998;2022-10-18T19:26:12;99309.81;;;6.92;100.00
42859;BME280;28505;56.970;40.998;2022-10-18T19:31:37;99317.28;;;6.95;100.00
42859;BME280;28505;56.970;40.998;2022-10-18T19:37:00;99318.06;;;6.95;100.00
42859;BME280;28505;56.970;40.998;2022-10-18T19:42:22;99317.28;;;6.95;100.00
42859;BME280;28505;56.970;40.998;2022-10-18T19:47:51;99334.94;;;6.96;100.00
42859;BME280;28505;56.970;40.998;2022-10-18T19:53:13;99323.44;;;6.95;100.00
42859;BME280;28505;56.970;40.998;2022-10-18T19:58:35;99321.78;;;6.99;100.00
42859;BME280;28505;56.970;40.998;2022-10-18T20:03:57;99319.72;;;6.91;100.00
42859;BME280;28505;56.970;40.998;2022-10-18T20:09:20;99326.63;;;6.97;100.00
42859;BME280;28505;56.970;40.998;2022-10-18T20:15:04;99263.88;;;6.50;100.00
42859;BME280;28505;56.970;40.998;2022-10-18T20:20:34;99237.22;;;6.40;100.00
42859;BME280;28505;56.970;40.998;2022-10-18T20:26:07;99304.19;;;6.93;100.00
42859;BME280;28505;56.970;40.998;2022-10-18T20:31:41;99226.84;;;6.33;100.00
42859;BME280;28505;56.970;40.998;2022-10-18T20:37:03;99230.31;;;6.34;100.00
42859;BME280;28505;56.970;40.998;2022-10-18T20:42:57;99286.72;;;6.72;100.00
42859;BME280;28505;56.970;40.998;2022-10-18T20:48:55;99320.25;;;6.93;100.00
42859;BME280;28505;56.970;40.998;2022-10-18T20:54:51;99235.84;;;6.43;100.00
42859;BME280;28505;56.970;40.998;2022-10-18T21:00:29;99232.44;;;6.37;100.00
42859;BME280;28505;56.970;40.998;2022-10-18T21:07:10;99326.69;;;6.92;100.00
42859;BME280;28505;56.970;40.998;2022-10-18T21:12:36;99278.50;;;6.63;100.00
42859;BME280;28505;56.970;40.998;2022-10-18T21:17:58;99294.97;;;6.75;100.00
42859;BME280;28505;56.970;40.998;2022-10-18T21:23:21;99306.38;;;6.86;100.00
42859;BME280;28505;56.970;40.998;2022-10-18T21:28:46;99305.09;;;6.84;100.00
42859;BME280;28505;56.970;40.998;2022-10-18T21:34:12;99317.31;;;6.90;100.00
42859;BME280;28505;56.970;40.998;2022-10-18T21:39:35;99297.88;;;6.79;100.00
42859;BME280;28505;56.970;40.998;2022-10-18T21:44:57;99307.44;;;6.90;100.00
42859;BME280;28505;56.970;40.998;2022-10-18T21:50:19;99305.25;;;6.92;100.00
42859;BME280;28505;56.970;40.998;2022-10-18T21:55:42;99279.69;;;6.76;100.00
42859;BME280;28505;56.970;40.998;2022-10-18T22:01:11;99299.63;;;6.94;100.00
42859;BME280;28505;56.970;40.998;2022-10-18T22:06:35;99302.56;;;6.92;100.00
42859;BME280;28505;56.970;40.998;2022-10-18T22:11:56;99288.66;;;6.90;100.00
42859;BME280;28505;56.970;40.998;2022-10-18T22:17:19;99291.97;;;6.82;100.00
42859;BME280;28505;56.970;40.998;2022-10-18T22:22:41;99305.16;;;6.73;100.00
42859;BME280;28505;56.970;40.998;2022-10-18T22:28:03;99300.22;;;6.62;100.00
42859;BME280;28505;56.970;40.998;2022-10-18T22:33:25;99267.44;;;6.46;100.00
42859;BME280;28505;56.970;40.998;2022-10-18T22:38:47;99250.09;;;6.38;100.00
42859;BME280;28505;56.970;40.998;2022-10-18T22:44:11;99237.31;;;6.30;100.00
42859;BME280;28505;56.970;40.998;2022-10-18T22:49:33;99251.34;;;6.46;100.00
42859;BME280;28505;56.970;40.998;2022-10-18T22:54:55;99280.34;;;6.68;100.00
42859;BME280;28505;56.970;40.998;2022-10-18T23:00:17;99289.44;;;6.67;100.00
42859;BME280;28505;56.970;40.998;2022-10-18T23:05:41;99248.66;;;6.51;100.00
42859;BME280;28505;56.970;40.998;2022-10-18T23:11:04;99284.06;;;6.67;100.00
42859;BME280;28505;56.970;40.998;2022-10-18T23:16:26;99276.09;;;6.62;100.00
42859;BME280;28505;56.970;40.998;2022-10-18T23:21:49;99256.38;;;6.52;100.00
42859;BME280;28505;56.970;40.998;2022-10-18T23:27:11;99285.22;;;6.61;100.00
42859;BME280;28505;56.970;40.998;2022-10-18T23:32:33;99293.19;;;6.66;100.00
42859;BME280;28505;56.970;40.998;2022-10-18T23:37:55;99283.81;;;6.68;100.00
42859;BME280;28505;56.970;40.998;2022-10-18T23:43:17;99278.72;;;6.67;100.00
42859;BME280;28505;56.970;40.998;2022-10-18T23:48:39;99267.28;;;6.61;100.00
42859;BME280;28505;56.970;40.998;2022-10-18T23:54:01;99271.78;;;6.66;100.00
42859;BME280;28505;56.970;40.998;2022-10-18T23:59:23;99264.31;;;6.63;100.00
